sensor_id;sensor_type;location;lat;lon;timestamp;pressure;altitude;pressure_sealevel;temperature;humidity
59588;BME280;45412;54.472;18.464;2023-08-06T00:00:47;99267.95;;;15.35;100.00
59588;BME280;45412;54.472;18.464;2023-08-06T00:03:48;99265.92;;;15.34;100.00
59588;BME280;45412;54.472;18.464;2023-08-06T00:06:35;99258.85;;;15.32;100.00
59588;BME280;45412;54.472;18.464;2023-08-06T00:09:22;99253.18;;;15.31;100.00
59588;BME280;45412;54.472;18.464;2023-08-06T00:12:09;99235.36;;;15.30;100.00
59588;BME280;45412;54.472;18.464;2023-08-06T00:14:56;99227.10;;;15.30;100.00
59588;BME280;45412;54.472;18.464;2023-08-06T00:17:42;99217.25;;;15.26;100.00
59588;BME280;45412;54.472;18.464;2023-08-06T00:20:30;99217.29;;;15.25;100.00
59588;BME280;45412;54.472;18.464;2023-08-06T00:23:17;99223.45;;;15.25;100.00
59588;BME280;45412;54.472;18.464;2023-08-06T00:26:04;99216.69;;;15.25;100.00
59588;BME280;45412;54.472;18.464;2023-08-06T00:28:51;99216.11;;;15.24;100.00
59588;BME280;45412;54.472;18.464;2023-08-06T00:31:38;99214.53;;;15.22;100.00
59588;BME280;45412;54.472;18.464;2023-08-06T00:34:25;99214.93;;;15.20;100.00
59588;BME280;45412;54.472;18.464;2023-08-06T00:37:11;99218.77;;;15.21;100.00
59588;BME280;45412;54.472;18.464;2023-08-06T00:39:58;99216.15;;;15.22;100.00
59588;BME280;45412;54.472;18.464;2023-08-06T00:42:45;99212.76;;;15.23;100.00
59588;BME280;45412;54.472;18.464;2023-08-06T00:45:36;99219.65;;;15.25;100.00
59588;BME280;45412;54.472;18.464;2023-08-06T00:48:23;99213.02;;;15.26;100.00
59588;BME280;45412;54.472;18.464;2023-08-06T00:51:10;99197.85;;;15.24;100.00
59588;BME280;45412;54.472;18.464;2023-08-06T00:53:57;99182.71;;;15.22;100.00
59588;BME280;45412;54.472;18.464;2023-08-06T00:56:45;99190.05;;;15.22;100.00
59588;BME280;45412;54.472;18.464;2023-08-06T00:59:32;99190.52;;;15.21;100.00
59588;BME280;45412;54.472;18.464;2023-08-06T01:02:20;99183.91;;;15.21;100.00
59588;BME280;45412;54.472;18.464;2023-08-06T01:05:07;99173.16;;;15.21;100.00
59588;BME280;45412;54.472;18.464;2023-08-06T01:14:09;99151.29;;;15.22;100.00
59588;BME280;45412;54.472;18.464;2023-08-06T01:17:01;99147.50;;;15.21;100.00
59588;BME280;45412;54.472;18.464;2023-08-06T01:19:48;99147.33;;;15.19;100.00
59588;BME280;45412;54.472;18.464;2023-08-06T01:22:36;99144.20;;;15.15;100.00
59588;BME280;45412;54.472;18.464;2023-08-06T01:25:33;99144.57;;;15.11;100.00
59588;BME280;45412;54.472;18.464;2023-08-06T01:28:41;99139.45;;;15.08;100.00
59588;BME280;45412;54.472;18.464;2023-08-06T01:31:41;99131.30;;;15.04;100.00
59588;BME280;45412;54.472;18.464;2023-08-06T01:34:32;99127.19;;;15.01;100.00
59588;BME280;45412;54.472;18.464;2023-08-06T01:37:21;99118.36;;;14.98;100.00
59588;BME280;45412;54.472;18.464;2023-08-06T01:40:16;99119.16;;;14.96;100.00
59588;BME280;45412;54.472;18.464;2023-08-06T01:43:03;99112.55;;;14.93;100.00
59588;BME280;45412;54.472;18.464;2023-08-06T01:45:49;99111.92;;;14.89;100.00
59588;BME280;45412;54.472;18.464;2023-08-06T01:48:36;99112.39;;;14.86;100.00
59588;BME280;45412;54.472;18.464;2023-08-06T01:51:23;99111.15;;;14.82;100.00
59588;BME280;45412;54.472;18.464;2023-08-06T01:54:20;99115.14;;;14.79;100.00
59588;BME280;45412;54.472;18.464;2023-08-06T01:57:25;99105.00;;;14.77;100.00
59588;BME280;45412;54.472;18.464;2023-08-06T02:00:12;99097.54;;;14.76;100.00
59588;BME280;45412;54.472;18.464;2023-08-06T02:02:58;99088.88;;;14.71;100.00
59588;BME280;45412;54.472;18.464;2023-08-06T02:05:45;99091.13;;;14.69;100.00
59588;BME280;45412;54.472;18.464;2023-08-06T02:08:32;99094.87;;;14.68;100.00
59588;BME280;45412;54.472;18.464;2023-08-06T02:11:18;99082.71;;;14.67;100.00
59588;BME280;45412;54.472;18.464;2023-08-06T02:14:05;99077.13;;;14.66;100.00
59588;BME280;45412;54.472;18.464;2023-08-06T02:16:51;99068.87;;;14.62;100.00
59588;BME280;45412;54.472;18.464;2023-08-06T02:19:37;99065.74;;;14.62;100.00
59588;BME280;45412;54.472;18.464;2023-08-06T02:22:24;99055.88;;;14.62;100.00
59588;BME280;45412;54.472;18.464;2023-08-06T02:25:10;99051.89;;;14.61;100.00
59588;BME280;45412;54.472;18.464;2023-08-06T02:27:58;99040.46;;;14.60;100.00
59588;BME280;45412;54.472;18.464;2023-08-06T02:30:52;99035.79;;;14.60;100.00
59588;BME280;45412;54.472;18.464;2023-08-06T02:33:38;99024.38;;;14.61;100.00
59588;BME280;45412;54.472;18.464;2023-08-06T02:36:25;99015.52;;;14.61;100.00
59588;BME280;45412;54.472;18.464;2023-08-06T02:39:21;99007.34;;;14.62;100.00
59588;BME280;45412;54.472;18.464;2023-08-06T02:42:08;99000.15;;;14.64;100.00
59588;BME280;45412;54.472;18.464;2023-08-06T02:44:55;98988.63;;;14.65;100.00
59588;BME280;45412;54.472;18.464;2023-08-06T02:47:42;98978.41;;;14.66;100.00
59588;BME280;45412;54.472;18.464;2023-08-06T02:50:28;98969.76;;;14.67;100.00
59588;BME280;45412;54.472;18.464;2023-08-06T02:53:15;98958.67;;;14.67;100.00
59588;BME280;45412;54.472;18.464;2023-08-06T02:56:05;98954.63;;;14.68;100.00
59588;BME280;45412;54.472;18.464;2023-08-06T02:59:01;98946.93;;;14.68;100.00
59588;BME280;45412;54.472;18.464;2023-08-06T03:01:56;98939.70;;;14.69;100.00
59588;BME280;45412;54.472;18.464;2023-08-06T03:04:48;98934.13;;;14.71;100.00
59588;BME280;45412;54.472;18.464;2023-08-06T03:07:36;98929.77;;;14.73;100.00
59588;BME280;45412;54.472;18.464;2023-08-06T03:10:29;98923.89;;;14.76;100.00
59588;BME280;45412;54.472;18.464;2023-08-06T03:13:18;98926.56;;;14.79;100.00
59588;BME280;45412;54.472;18.464;2023-08-06T03:16:05;98914.22;;;14.83;100.00
59588;BME280;45412;54.472;18.464;2023-08-06T03:18:53;98906.22;;;14.86;100.00
59588;BME280;45412;54.472;18.464;2023-08-06T03:21:39;98889.38;;;14.89;100.00
59588;BME280;45412;54.472;18.464;2023-08-06T03:24:27;98868.54;;;14.92;100.00
59588;BME280;45412;54.472;18.464;2023-08-06T03:27:15;98846.40;;;14.94;100.00
59588;BME280;45412;54.472;18.464;2023-08-06T03:30:03;98822.69;;;14.99;100.00
59588;BME280;45412;54.472;18.464;2023-08-06T03:32:50;98792.02;;;15.03;100.00
59588;BME280;45412;54.472;18.464;2023-08-06T03:35:37;98753.88;;;15.07;100.00
59588;BME280;45412;54.472;18.464;2023-08-06T03:38:24;98698.05;;;15.11;100.00
59588;BME280;45412;54.472;18.464;2023-08-06T03:41:12;98667.47;;;15.14;100.00
59588;BME280;45412;54.472;18.464;2023-08-06T03:43:59;98682.61;;;15.18;100.00
59588;BME280;45412;54.472;18.464;2023-08-06T03:46:49;98713.89;;;15.22;100.00
59588;BME280;45412;54.472;18.464;2023-08-06T03:49:36;98718.33;;;15.27;100.00
59588;BME280;45412;54.472;18.464;2023-08-06T03:52:23;98720.16;;;15.33;100.00
59588;BME280;45412;54.472;18.464;2023-08-06T03:55:11;98744.38;;;15.39;100.00
59588;BME280;45412;54.472;18.464;2023-08-06T03:57:57;98745.98;;;15.44;100.00
59588;BME280;45412;54.472;18.464;2023-08-06T04:00:44;98757.63;;;15.48;100.00
59588;BME280;45412;54.472;18.464;2023-08-06T04:03:31;98761.10;;;15.52;100.00
59588;BME280;45412;54.472;18.464;2023-08-06T04:06:19;98752.55;;;15.56;100.00
59588;BME280;45412;54.472;18.464;2023-08-06T04:09:08;98748.98;;;15.61;100.00
59588;BME280;45412;54.472;18.464;2023-08-06T04:11:55;98747.92;;;15.62;100.00
59588;BME280;45412;54.472;18.464;2023-08-06T04:14:42;98742.65;;;15.63;100.00
59588;BME280;45412;54.472;18.464;2023-08-06T04:17:29;98740.66;;;15.66;100.00
59588;BME280;45412;54.472;18.464;2023-08-06T04:20:16;98735.54;;;15.70;100.00
59588;BME280;45412;54.472;18.464;2023-08-06T04:23:06;98719.36;;;15.73;100.00
59588;BME280;45412;54.472;18.464;2023-08-06T04:25:57;98706.14;;;15.74;100.00
59588;BME280;45412;54.472;18.464;2023-08-06T04:28:46;98702.34;;;15.74;100.00
59588;BME280;45412;54.472;18.464;2023-08-06T04:31:33;98694.31;;;15.72;100.00
59588;BME280;45412;54.472;18.464;2023-08-06T04:34:20;98695.09;;;15.72;100.00
59588;BME280;45412;54.472;18.464;2023-08-06T04:37:07;98682.06;;;15.73;100.00
59588;BME280;45412;54.472;18.464;2023-08-06T04:39:54;98674.20;;;15.73;100.00
59588;BME280;45412;54.472;18.464;2023-08-06T04:42:43;98669.09;;;15.74;100.00
59588;BME280;45412;54.472;18.464;2023-08-06T04:45:32;98670.83;;;15.75;100.00
59588;BME280;45412;54.472;18.464;2023-08-06T04:48:19;98683.20;;;15.74;100.00
59588;BME280;45412;54.472;18.464;2023-08-06T04:51:06;98679.46;;;15.75;100.00
59588;BME280;45412;54.472;18.464;2023-08-06T04:53:52;98663.20;;;15.78;100.00
59588;BME280;45412;54.472;18.464;2023-08-06T04:56:39;98642.04;;;15.80;100.00
59588;BME280;45412;54.472;18.464;2023-08-06T04:59:28;98632.14;;;15.81;100.00
59588;BME280;45412;54.472;18.464;2023-08-06T05:02:15;98647.45;;;15.83;100.00
59588;BME280;45412;54.472;18.464;2023-08-06T05:05:01;98649.11;;;15.86;100.00
59588;BME280;45412;54.472;18.464;2023-08-06T05:07:50;98645.52;;;15.89;100.00
59588;BME280;45412;54.472;18.464;2023-08-06T05:10:36;98647.21;;;15.92;100.00
59588;BME280;45412;54.472;18.464;2023-08-06T05:13:23;98648.66;;;15.95;100.00
59588;BME280;45412;54.472;18.464;2023-08-06T05:16:10;98654.40;;;15.99;100.00
59588;BME280;45412;54.472;18.464;2023-08-06T05:18:59;98658.94;;;16.02;100.00
59588;BME280;45412;54.472;18.464;2023-08-06T05:21:48;98656.69;;;16.06;100.00
59588;BME280;45412;54.472;18.464;2023-08-06T05:24:35;98660.80;;;16.10;100.00
59588;BME280;45412;54.472;18.464;2023-08-06T05:27:21;98662.95;;;16.13;100.00
59588;BME280;45412;54.472;18.464;2023-08-06T05:30:09;98661.47;;;16.15;100.00
59588;BME280;45412;54.472;18.464;2023-08-06T05:32:56;98653.30;;;16.19;100.00
59588;BME280;45412;54.472;18.464;2023-08-06T05:35:43;98647.10;;;16.21;100.00
59588;BME280;45412;54.472;18.464;2023-08-06T05:38:30;98646.73;;;16.27;100.00
59588;BME280;45412;54.472;18.464;2023-08-06T05:41:22;98638.41;;;16.29;100.00
59588;BME280;45412;54.472;18.464;2023-08-06T05:44:08;98631.10;;;16.33;100.00
59588;BME280;45412;54.472;18.464;2023-08-06T05:46:55;98610.45;;;16.37;100.00
59588;BME280;45412;54.472;18.464;2023-08-06T05:49:41;98607.34;;;16.42;100.00
59588;BME280;45412;54.472;18.464;2023-08-06T05:52:28;98622.87;;;16.45;100.00
59588;BME280;45412;54.472;18.464;2023-08-06T05:55:14;98630.49;;;16.48;100.00
59588;BME280;45412;54.472;18.464;2023-08-06T05:58:01;98624.66;;;16.52;100.00
59588;BME280;45412;54.472;18.464;2023-08-06T06:00:49;98610.93;;;16.54;100.00
59588;BME280;45412;54.472;18.464;2023-08-06T06:03:36;98579.50;;;16.57;100.00
59588;BME280;45412;54.472;18.464;2023-08-06T06:06:26;98517.64;;;16.59;100.00
59588;BME280;45412;54.472;18.464;2023-08-06T06:09:13;98501.66;;;16.61;100.00
59588;BME280;45412;54.472;18.464;2023-08-06T06:12:00;98496.89;;;16.63;100.00
59588;BME280;45412;54.472;18.464;2023-08-06T06:14:47;98499.29;;;16.64;100.00
59588;BME280;45412;54.472;18.464;2023-08-06T06:17:34;98534.66;;;16.66;100.00
59588;BME280;45412;54.472;18.464;2023-08-06T06:20:22;98540.80;;;16.68;100.00
59588;BME280;45412;54.472;18.464;2023-08-06T06:23:10;98514.06;;;16.67;100.00
59588;BME280;45412;54.472;18.464;2023-08-06T06:26:03;98510.98;;;16.66;100.00
59588;BME280;45412;54.472;18.464;2023-08-06T06:29:25;98510.00;;;16.65;100.00
59588;BME280;45412;54.472;18.464;2023-08-06T06:32:35;98528.31;;;16.66;100.00
59588;BME280;45412;54.472;18.464;2023-08-06T06:35:22;98538.81;;;16.67;100.00
59588;BME280;45412;54.472;18.464;2023-08-06T06:38:08;98541.76;;;16.69;100.00
59588;BME280;45412;54.472;18.464;2023-08-06T06:40:56;98542.43;;;16.72;100.00
59588;BME280;45412;54.472;18.464;2023-08-06T06:43:44;98548.98;;;16.74;100.00
59588;BME280;45412;54.472;18.464;2023-08-06T06:46:30;98551.89;;;16.76;100.00
59588;BME280;45412;54.472;18.464;2023-08-06T06:49:17;98542.52;;;16.79;100.00
59588;BME280;45412;54.472;18.464;2023-08-06T06:52:04;98531.89;;;16.83;100.00
59588;BME280;45412;54.472;18.464;2023-08-06T06:54:51;98519.71;;;16.86;100.00
59588;BME280;45412;54.472;18.464;2023-08-06T06:57:47;98505.58;;;16.91;100.00
59588;BME280;45412;54.472;18.464;2023-08-06T07:00:38;98496.20;;;16.97;100.00
59588;BME280;45412;54.472;18.464;2023-08-06T07:03:25;98491.39;;;17.03;100.00
59588;BME280;45412;54.472;18.464;2023-08-06T07:06:15;98489.58;;;17.11;100.00
59588;BME280;45412;54.472;18.464;2023-08-06T07:09:02;98490.99;;;17.15;100.00
59588;BME280;45412;54.472;18.464;2023-08-06T07:11:52;98477.61;;;17.18;100.00
59588;BME280;45412;54.472;18.464;2023-08-06T07:14:39;98462.58;;;17.24;100.00
59588;BME280;45412;54.472;18.464;2023-08-06T07:17:27;98458.25;;;17.28;100.00
59588;BME280;45412;54.472;18.464;2023-08-06T07:20:13;98447.67;;;17.32;100.00
59588;BME280;45412;54.472;18.464;2023-08-06T07:23:00;98443.09;;;17.36;100.00
59588;BME280;45412;54.472;18.464;2023-08-06T07:25:54;98445.09;;;17.40;100.00
59588;BME280;45412;54.472;18.464;2023-08-06T07:28:42;98440.30;;;17.42;100.00
59588;BME280;45412;54.472;18.464;2023-08-06T07:31:29;98432.68;;;17.45;100.00
59588;BME280;45412;54.472;18.464;2023-08-06T07:34:16;98432.66;;;17.52;100.00
59588;BME280;45412;54.472;18.464;2023-08-06T07:37:03;98433.27;;;17.61;100.00
59588;BME280;45412;54.472;18.464;2023-08-06T07:39:50;98429.84;;;17.71;100.00
59588;BME280;45412;54.472;18.464;2023-08-06T07:42:36;98419.13;;;17.80;100.00
59588;BME280;45412;54.472;18.464;2023-08-06T07:45:24;98418.27;;;17.88;100.00
59588;BME280;45412;54.472;18.464;2023-08-06T07:48:12;98406.70;;;17.95;100.00
59588;BME280;45412;54.472;18.464;2023-08-06T07:51:00;98400.48;;;18.00;100.00
59588;BME280;45412;54.472;18.464;2023-08-06T07:53:46;98395.84;;;18.03;100.00
59588;BME280;45412;54.472;18.464;2023-08-06T07:56:33;98392.82;;;18.08;100.00
59588;BME280;45412;54.472;18.464;2023-08-06T07:59:22;98389.58;;;18.15;100.00
59588;BME280;45412;54.472;18.464;2023-08-06T08:02:12;98385.92;;;18.22;100.00
59588;BME280;45412;54.472;18.464;2023-08-06T08:05:01;98374.64;;;18.29;100.00
59588;BME280;45412;54.472;18.464;2023-08-06T08:07:47;98367.84;;;18.33;100.00
59588;BME280;45412;54.472;18.464;2023-08-06T08:10:35;98357.19;;;18.34;100.00
59588;BME280;45412;54.472;18.464;2023-08-06T08:13:23;98341.73;;;18.35;100.00
59588;BME280;45412;54.472;18.464;2023-08-06T08:16:11;98335.08;;;18.45;100.00
59588;BME280;45412;54.472;18.464;2023-08-06T08:18:58;98330.40;;;18.55;100.00
59588;BME280;45412;54.472;18.464;2023-08-06T08:21:44;98323.63;;;18.60;100.00
59588;BME280;45412;54.472;18.464;2023-08-06T08:24:31;98318.13;;;18.60;100.00
59588;BME280;45412;54.472;18.464;2023-08-06T08:27:18;98317.36;;;18.61;100.00
59588;BME280;45412;54.472;18.464;2023-08-06T08:30:06;98311.65;;;18.67;100.00
59588;BME280;45412;54.472;18.464;2023-08-06T08:32:54;98312.85;;;18.70;100.00
59588;BME280;45412;54.472;18.464;2023-08-06T08:35:45;98311.80;;;18.73;100.00
59588;BME280;45412;54.472;18.464;2023-08-06T08:38:47;98307.64;;;18.75;100.00
59588;BME280;45412;54.472;18.464;2023-08-06T08:42:06;98294.92;;;18.80;100.00
59588;BME280;45412;54.472;18.464;2023-08-06T08:45:13;98292.34;;;18.78;100.00
59588;BME280;45412;54.472;18.464;2023-08-06T08:48:04;98288.30;;;18.72;100.00
59588;BME280;45412;54.472;18.464;2023-08-06T08:50:51;98279.58;;;18.69;100.00
59588;BME280;45412;54.472;18.464;2023-08-06T08:53:37;98276.15;;;18.65;100.00
59588;BME280;45412;54.472;18.464;2023-08-06T08:56:59;98269.55;;;18.69;100.00
59588;BME280;45412;54.472;18.464;2023-08-06T08:59:47;98259.34;;;18.71;100.00
59588;BME280;45412;54.472;18.464;2023-08-06T09:02:34;98254.85;;;18.79;100.00
59588;BME280;45412;54.472;18.464;2023-08-06T09:05:23;98253.90;;;18.79;100.00
59588;BME280;45412;54.472;18.464;2023-08-06T09:08:18;98244.06;;;18.82;100.00
59588;BME280;45412;54.472;18.464;2023-08-06T09:11:09;98235.73;;;18.82;100.00
59588;BME280;45412;54.472;18.464;2023-08-06T09:13:57;98229.73;;;18.79;100.00
59588;BME280;45412;54.472;18.464;2023-08-06T09:16:44;98225.02;;;18.78;100.00
59588;BME280;45412;54.472;18.464;2023-08-06T09:19:31;98217.09;;;18.78;100.00
59588;BME280;45412;54.472;18.464;2023-08-06T09:22:34;98210.05;;;18.76;100.00
59588;BME280;45412;54.472;18.464;2023-08-06T09:25:46;98199.45;;;18.76;100.00
59588;BME280;45412;54.472;18.464;2023-08-06T09:28:41;98190.29;;;18.74;100.00
59588;BME280;45412;54.472;18.464;2023-08-06T09:31:47;98182.44;;;18.77;100.00
59588;BME280;45412;54.472;18.464;2023-08-06T09:34:41;98166.46;;;18.74;100.00
59588;BME280;45412;54.472;18.464;2023-08-06T09:37:35;98155.50;;;18.70;100.00
59588;BME280;45412;54.472;18.464;2023-08-06T09:40:31;98147.80;;;18.68;100.00
59588;BME280;45412;54.472;18.464;2023-08-06T09:43:19;98139.15;;;18.74;100.00
59588;BME280;45412;54.472;18.464;2023-08-06T09:46:16;98139.30;;;18.87;100.00
59588;BME280;45412;54.472;18.464;2023-08-06T09:49:43;98157.02;;;19.03;100.00
59588;BME280;45412;54.472;18.464;2023-08-06T09:52:38;98165.39;;;19.17;100.00
59588;BME280;45412;54.472;18.464;2023-08-06T09:55:26;98168.52;;;19.33;100.00
59588;BME280;45412;54.472;18.464;2023-08-06T09:58:13;98171.75;;;19.43;100.00
59588;BME280;45412;54.472;18.464;2023-08-06T10:01:02;98173.27;;;19.50;100.00
59588;BME280;45412;54.472;18.464;2023-08-06T10:03:51;98173.80;;;19.54;100.00
59588;BME280;45412;54.472;18.464;2023-08-06T10:06:40;98175.46;;;19.53;100.00
59588;BME280;45412;54.472;18.464;2023-08-06T10:09:30;98173.02;;;19.50;100.00
59588;BME280;45412;54.472;18.464;2023-08-06T10:12:17;98168.96;;;19.52;100.00
59588;BME280;45412;54.472;18.464;2023-08-06T10:15:11;98167.66;;;19.54;100.00
59588;BME280;45412;54.472;18.464;2023-08-06T10:18:01;98167.39;;;19.52;100.00
59588;BME280;45412;54.472;18.464;2023-08-06T10:20:48;98164.30;;;19.51;100.00
59588;BME280;45412;54.472;18.464;2023-08-06T10:23:36;98160.20;;;19.53;100.00
59588;BME280;45412;54.472;18.464;2023-08-06T10:26:30;98161.02;;;19.53;100.00
59588;BME280;45412;54.472;18.464;2023-08-06T10:29:44;98154.64;;;19.54;100.00
59588;BME280;45412;54.472;18.464;2023-08-06T10:32:47;98144.77;;;19.53;100.00
59588;BME280;45412;54.472;18.464;2023-08-06T10:35:46;98133.80;;;19.51;100.00
59588;BME280;45412;54.472;18.464;2023-08-06T10:38:50;98124.23;;;19.48;100.00
59588;BME280;45412;54.472;18.464;2023-08-06T10:41:41;98122.55;;;19.48;100.00
59588;BME280;45412;54.472;18.464;2023-08-06T10:44:30;98117.57;;;19.51;100.00
59588;BME280;45412;54.472;18.464;2023-08-06T10:47:28;98106.41;;;19.53;100.00
59588;BME280;45412;54.472;18.464;2023-08-06T10:50:17;98097.34;;;19.51;100.00
59588;BME280;45412;54.472;18.464;2023-08-06T10:53:05;98091.98;;;19.47;100.00
59588;BME280;45412;54.472;18.464;2023-08-06T10:55:54;98093.59;;;19.46;100.00
59588;BME280;45412;54.472;18.464;2023-08-06T10:58:44;98085.73;;;19.51;100.00
59588;BME280;45412;54.472;18.464;2023-08-06T11:01:32;98074.10;;;19.55;100.00
59588;BME280;45412;54.472;18.464;2023-08-06T11:04:21;98071.80;;;19.60;100.00
59588;BME280;45412;54.472;18.464;2023-08-06T11:07:10;98071.80;;;19.70;100.00
59588;BME280;45412;54.472;18.464;2023-08-06T11:10:07;98064.95;;;19.85;100.00
59588;BME280;45412;54.472;18.464;2023-08-06T11:12:55;98065.99;;;20.00;100.00
59588;BME280;45412;54.472;18.464;2023-08-06T11:15:42;98056.42;;;20.28;100.00
59588;BME280;45412;54.472;18.464;2023-08-06T11:18:29;98065.02;;;20.61;100.00
59588;BME280;45412;54.472;18.464;2023-08-06T11:21:20;98064.54;;;20.95;100.00
59588;BME280;45412;54.472;18.464;2023-08-06T11:24:10;98061.84;;;21.27;100.00
59588;BME280;45412;54.472;18.464;2023-08-06T11:26:57;98057.33;;;21.46;100.00
59588;BME280;45412;54.472;18.464;2023-08-06T11:29:44;98044.36;;;21.79;100.00
59588;BME280;45412;54.472;18.464;2023-08-06T11:32:32;98043.27;;;22.18;100.00
59588;BME280;45412;54.472;18.464;2023-08-06T11:35:22;98042.48;;;22.39;99.96
59588;BME280;45412;54.472;18.464;2023-08-06T11:38:13;98042.57;;;22.62;99.09
59588;BME280;45412;54.472;18.464;2023-08-06T11:41:09;98037.06;;;22.73;96.12
59588;BME280;45412;54.472;18.464;2023-08-06T11:43:59;98041.80;;;22.69;95.88
59588;BME280;45412;54.472;18.464;2023-08-06T11:46:56;98040.67;;;22.65;95.42
59588;BME280;45412;54.472;18.464;2023-08-06T11:49:48;98038.39;;;22.62;94.19
59588;BME280;45412;54.472;18.464;2023-08-06T11:52:40;98031.35;;;22.58;93.68
59588;BME280;45412;54.472;18.464;2023-08-06T11:55:28;98026.19;;;22.51;94.26
59588;BME280;45412;54.472;18.464;2023-08-06T11:58:16;98022.98;;;22.47;94.49
59588;BME280;45412;54.472;18.464;2023-08-06T12:01:04;98018.89;;;22.52;94.37
59588;BME280;45412;54.472;18.464;2023-08-06T12:04:02;98013.21;;;22.71;93.75
59588;BME280;45412;54.472;18.464;2023-08-06T12:06:51;98010.01;;;22.78;93.30
59588;BME280;45412;54.472;18.464;2023-08-06T12:09:43;98010.98;;;22.89;92.69
59588;BME280;45412;54.472;18.464;2023-08-06T12:12:34;97998.73;;;23.25;92.14
59588;BME280;45412;54.472;18.464;2023-08-06T12:15:23;97994.33;;;23.76;91.04
59588;BME280;45412;54.472;18.464;2023-08-06T12:18:11;97994.23;;;24.14;88.45
59588;BME280;45412;54.472;18.464;2023-08-06T12:21:00;97992.44;;;24.42;86.80
59588;BME280;45412;54.472;18.464;2023-08-06T12:23:55;97992.05;;;24.73;85.99
59588;BME280;45412;54.472;18.464;2023-08-06T12:26:43;97982.70;;;24.76;83.99
59588;BME280;45412;54.472;18.464;2023-08-06T12:29:33;97978.86;;;24.79;82.61
59588;BME280;45412;54.472;18.464;2023-08-06T12:32:23;97976.27;;;24.82;82.61
59588;BME280;45412;54.472;18.464;2023-08-06T12:35:21;97970.00;;;24.80;82.63
59588;BME280;45412;54.472;18.464;2023-08-06T12:38:09;97966.64;;;24.84;82.60
59588;BME280;45412;54.472;18.464;2023-08-06T12:41:05;97959.27;;;25.08;82.56
59588;BME280;45412;54.472;18.464;2023-08-06T12:43:55;97946.81;;;25.35;81.68
59588;BME280;45412;54.472;18.464;2023-08-06T12:46:44;97937.85;;;25.63;80.32
59588;BME280;45412;54.472;18.464;2023-08-06T12:49:31;97928.73;;;25.78;78.11
59588;BME280;45412;54.472;18.464;2023-08-06T12:52:20;97923.66;;;25.71;77.09
59588;BME280;45412;54.472;18.464;2023-08-06T12:55:09;97920.59;;;25.65;77.69
59588;BME280;45412;54.472;18.464;2023-08-06T12:58:01;97916.30;;;25.71;77.91
59588;BME280;45412;54.472;18.464;2023-08-06T13:01:04;97908.25;;;25.88;76.44
59588;BME280;45412;54.472;18.464;2023-08-06T13:04:15;97906.33;;;26.09;76.16
59588;BME280;45412;54.472;18.464;2023-08-06T13:07:10;97900.96;;;26.23;75.72
59588;BME280;45412;54.472;18.464;2023-08-06T13:09:57;97894.41;;;26.33;76.05
59588;BME280;45412;54.472;18.464;2023-08-06T13:12:45;97888.62;;;26.40;75.15
59588;BME280;45412;54.472;18.464;2023-08-06T13:15:33;97889.83;;;26.58;74.00
59588;BME280;45412;54.472;18.464;2023-08-06T13:18:24;97892.05;;;26.69;73.26
59588;BME280;45412;54.472;18.464;2023-08-06T13:21:13;97892.06;;;26.71;72.68
59588;BME280;45412;54.472;18.464;2023-08-06T13:24:04;97895.64;;;26.64;71.97
59588;BME280;45412;54.472;18.464;2023-08-06T13:26:54;97887.84;;;26.41;71.69
59588;BME280;45412;54.472;18.464;2023-08-06T13:29:44;97885.11;;;26.20;72.91
59588;BME280;45412;54.472;18.464;2023-08-06T13:32:32;97882.75;;;25.97;73.91
59588;BME280;45412;54.472;18.464;2023-08-06T13:35:23;97876.27;;;25.87;74.74
59588;BME280;45412;54.472;18.464;2023-08-06T13:38:16;97874.85;;;25.90;75.17
59588;BME280;45412;54.472;18.464;2023-08-06T13:41:05;97872.29;;;25.84;75.25
59588;BME280;45412;54.472;18.464;2023-08-06T13:44:08;97864.92;;;25.75;75.57
59588;BME280;45412;54.472;18.464;2023-08-06T13:47:03;97864.50;;;25.80;76.21
59588;BME280;45412;54.472;18.464;2023-08-06T13:49:54;97860.25;;;25.89;75.25
59588;BME280;45412;54.472;18.464;2023-08-06T13:52:45;97855.58;;;26.04;75.31
59588;BME280;45412;54.472;18.464;2023-08-06T13:55:32;97849.17;;;26.20;74.15
59588;BME280;45412;54.472;18.464;2023-08-06T13:58:24;97838.98;;;26.25;72.89
59588;BME280;45412;54.472;18.464;2023-08-06T14:01:17;97837.06;;;26.27;73.34
59588;BME280;45412;54.472;18.464;2023-08-06T14:04:09;97836.06;;;26.33;73.51
59588;BME280;45412;54.472;18.464;2023-08-06T14:06:58;97827.48;;;26.46;73.18
59588;BME280;45412;54.472;18.464;2023-08-06T14:09:46;97822.55;;;26.49;72.76
59588;BME280;45412;54.472;18.464;2023-08-06T14:12:34;97831.63;;;26.59;72.52
59588;BME280;45412;54.472;18.464;2023-08-06T14:15:22;97830.90;;;26.68;72.19
59588;BME280;45412;54.472;18.464;2023-08-06T14:18:16;97817.98;;;26.69;72.37
59588;BME280;45412;54.472;18.464;2023-08-06T14:21:05;97812.41;;;26.65;72.31
59588;BME280;45412;54.472;18.464;2023-08-06T14:23:54;97812.79;;;26.52;72.62
59588;BME280;45412;54.472;18.464;2023-08-06T14:26:45;97808.26;;;26.36;73.08
59588;BME280;45412;54.472;18.464;2023-08-06T14:29:43;97798.11;;;26.18;74.28
59588;BME280;45412;54.472;18.464;2023-08-06T14:32:39;97799.11;;;26.04;75.10
59588;BME280;45412;54.472;18.464;2023-08-06T14:35:26;97793.84;;;25.87;75.94
59588;BME280;45412;54.472;18.464;2023-08-06T14:38:17;97791.83;;;25.67;76.50
59588;BME280;45412;54.472;18.464;2023-08-06T14:41:04;97791.08;;;25.43;77.26
59588;BME280;45412;54.472;18.464;2023-08-06T14:43:54;97779.87;;;25.17;78.29
59588;BME280;45412;54.472;18.464;2023-08-06T14:46:53;97775.64;;;24.95;79.79